createdAt,value
2022-10-30T00:02:03.563Z,101488.00
2022-10-30T00:04:33.648Z,101466.59
2022-10-30T00:07:04.362Z,101330.09
2022-10-30T00:09:33.632Z,101496.25
2022-10-30T00:12:03.365Z,101495.56
2022-10-30T00:14:33.799Z,101492.50
2022-10-30T00:17:06.089Z,101459.28
2022-10-30T00:19:34.882Z,101296.50
2022-10-30T00:24:36.090Z,101494.16
2022-10-30T00:27:06.322Z,101419.81
2022-10-30T00:29:35.099Z,101429.03
2022-10-30T00:32:04.234Z,101157.03
2022-10-30T00:34:33.578Z,101491.19
2022-10-30T00:37:03.141Z,101253.78
2022-10-30T00:39:34.181Z,101411.84
2022-10-30T00:42:03.802Z,101497.09
2022-10-30T00:44:47.001Z,101461.91
2022-10-30T00:47:21.428Z,101507.19
2022-10-30T00:49:58.831Z,101492.16
2022-10-30T00:52:33.450Z,101512.22
2022-10-30T00:55:07.440Z,101512.59
2022-10-30T00:57:38.873Z,101508.91
2022-10-30T01:00:10.009Z,101498.94
2022-10-30T01:02:40.628Z,101496.13
2022-10-30T01:05:12.751Z,101494.00
2022-10-30T01:07:41.874Z,101506.53
2022-10-30T01:10:14.507Z,101504.69
2022-10-30T01:12:45.736Z,101504.31
2022-10-30T01:15:16.125Z,101506.44
2022-10-30T01:18:05.120Z,101452.50
2022-10-30T01:21:24.977Z,101392.56
2022-10-30T01:24:07.362Z,101521.56
2022-10-30T01:26:46.669Z,101510.91
2022-10-30T01:29:29.011Z,101477.91
2022-10-30T01:32:20.684Z,101523.94
2022-10-30T01:34:59.464Z,101491.78
2022-10-30T01:37:35.779Z,101475.81
2022-10-30T01:40:12.040Z,101523.97
2022-10-30T01:42:48.307Z,101527.13
2022-10-30T01:45:32.024Z,101531.16
2022-10-30T01:48:15.762Z,101418.72
2022-10-30T01:50:58.022Z,101526.44
2022-10-30T01:53:38.638Z,101521.28
2022-10-30T01:56:22.484Z,101532.03
2022-10-30T01:59:03.211Z,101486.44
2022-10-30T02:01:35.871Z,101519.22
2022-10-30T02:04:05.875Z,101385.56
2022-10-30T02:06:37.706Z,101489.63
2022-10-30T02:09:07.336Z,101465.91
2022-10-30T02:11:39.060Z,101400.03
2022-10-30T02:14:10.890Z,101532.19
2022-10-30T02:16:46.717Z,101563.63
2022-10-30T02:19:15.910Z,101129.91
2022-10-30T02:21:46.846Z,101468.38
2022-10-30T02:24:18.387Z,101493.38
2022-10-30T02:26:47.741Z,101542.00
2022-10-30T02:29:18.565Z,101540.09
2022-10-30T02:31:49.999Z,101530.53
2022-10-30T02:34:18.683Z,101523.34
2022-10-30T02:36:49.298Z,101531.94
2022-10-30T02:39:21.324Z,101543.50
2022-10-30T02:41:49.981Z,101426.56
2022-10-30T02:44:18.719Z,101542.19
2022-10-30T02:46:49.564Z,101549.03
2022-10-30T02:49:18.402Z,101550.44
2022-10-30T02:51:48.779Z,101430.78
2022-10-30T02:54:20.277Z,101548.88
2022-10-30T02:56:50.571Z,101549.66
2022-10-30T02:59:20.761Z,101536.19
2022-10-30T03:01:51.569Z,101544.88
2022-10-30T03:04:21.541Z,101550.03
2022-10-30T03:06:51.760Z,101549.94
2022-10-30T03:09:21.093Z,101248.41
2022-10-30T03:11:50.175Z,101547.03
2022-10-30T03:14:18.859Z,101548.44
2022-10-30T03:16:49.206Z,101546.13
2022-10-30T03:19:18.551Z,101543.03
2022-10-30T03:21:48.065Z,101544.31
2022-10-30T03:24:18.402Z,101542.72
2022-10-30T03:26:48.204Z,101531.78
2022-10-30T03:29:17.222Z,101483.97
2022-10-30T03:31:46.318Z,101532.41
2022-10-30T03:34:20.434Z,101527.63
2022-10-30T03:36:49.401Z,101544.59
2022-10-30T03:39:19.577Z,101513.41
2022-10-30T03:41:48.456Z,101525.47
2022-10-30T03:44:17.447Z,101536.66
2022-10-30T03:46:46.865Z,101548.63
2022-10-30T03:49:44.007Z,101534.78
2022-10-30T03:52:16.299Z,101531.00
2022-10-30T03:54:48.126Z,101526.13
2022-10-30T03:57:19.006Z,101387.13
2022-10-30T04:00:08.552Z,101525.00
2022-10-30T04:02:47.108Z,101532.72
2022-10-30T04:05:18.805Z,101438.41
2022-10-30T04:07:49.197Z,101524.00
2022-10-30T04:10:22.925Z,101530.19
2022-10-30T04:12:55.495Z,101562.16
2022-10-30T04:15:26.603Z,101432.97
2022-10-30T04:17:55.721Z,101472.81
2022-10-30T04:20:26.775Z,101579.41
2022-10-30T04:23:01.305Z,101510.41
2022-10-30T04:25:32.839Z,101532.69
2022-10-30T04:28:02.681Z,101539.56
2022-10-30T04:30:35.375Z,101542.09
2022-10-30T04:33:06.060Z,101542.94
2022-10-30T04:35:38.556Z,101511.38
2022-10-30T04:38:14.702Z,101312.41
2022-10-30T04:40:50.949Z,101545.78
2022-10-30T04:43:20.607Z,101490.41
2022-10-30T04:45:53.826Z,101533.09
2022-10-30T04:48:22.879Z,101529.56
2022-10-30T04:50:55.776Z,101532.34
2022-10-30T04:53:27.077Z,101531.72
2022-10-30T04:56:08.064Z,101524.59
2022-10-30T04:58:37.190Z,101434.34
2022-10-30T05:01:08.518Z,101501.13
2022-10-30T05:03:38.670Z,101476.50
2022-10-30T05:06:24.441Z,101122.44
2022-10-30T05:08:53.459Z,101520.88
2022-10-30T05:11:45.667Z,101456.75
2022-10-30T05:14:14.591Z,101453.13
2022-10-30T05:16:44.283Z,101489.00
2022-10-30T05:19:13.609Z,101512.50
2022-10-30T05:21:48.342Z,101512.38
2022-10-30T05:24:17.400Z,101522.97
2022-10-30T05:26:50.463Z,101524.81
2022-10-30T05:29:19.268Z,101530.72
2022-10-30T05:31:48.088Z,101527.41
2022-10-30T05:34:19.437Z,101491.97
2022-10-30T05:36:51.210Z,101517.38
2022-10-30T05:39:22.353Z,101517.84
2022-10-30T05:41:55.299Z,101453.56
2022-10-30T05:44:47.337Z,101524.44
2022-10-30T05:47:16.288Z,101413.38
2022-10-30T05:49:48.857Z,101442.06
2022-10-30T05:52:23.594Z,101529.38
2022-10-30T05:54:53.249Z,101530.69
2022-10-30T05:57:41.898Z,101528.69
2022-10-30T06:00:12.009Z,101530.16
2022-10-30T06:02:47.367Z,101534.06
2022-10-30T06:05:18.140Z,101540.91
2022-10-30T06:07:47.518Z,101082.94
2022-10-30T06:10:16.965Z,101407.09
2022-10-30T06:13:03.038Z,101503.91
2022-10-30T06:16:03.907Z,101538.84
2022-10-30T06:18:52.170Z,101547.91
2022-10-30T06:21:21.233Z,101548.66
2022-10-30T06:24:09.513Z,101545.41
2022-10-30T06:26:51.109Z,101548.88
2022-10-30T06:29:21.402Z,101541.69
2022-10-30T06:31:50.565Z,101538.53
2022-10-30T06:34:19.496Z,101545.72
2022-10-30T06:36:48.480Z,101521.34
2022-10-30T06:39:17.875Z,101521.91
2022-10-30T06:42:05.137Z,101551.00
2022-10-30T06:45:16.179Z,101527.16
2022-10-30T06:47:45.527Z,101548.06
2022-10-30T06:50:17.509Z,101560.13
2022-10-30T06:52:49.502Z,101549.50
2022-10-30T06:55:19.147Z,101563.09
2022-10-30T06:57:59.485Z,101545.78
2022-10-30T07:00:53.476Z,101514.91
2022-10-30T07:03:36.427Z,101538.56
2022-10-30T07:06:05.535Z,101496.34
2022-10-30T07:08:35.132Z,101478.13
2022-10-30T07:11:03.926Z,101533.16
2022-10-30T07:13:44.687Z,101533.00
2022-10-30T07:16:37.840Z,101501.84
2022-10-30T07:19:07.265Z,101533.06
2022-10-30T07:21:36.978Z,101508.25
2022-10-30T07:24:08.769Z,101495.91
2022-10-30T07:26:47.228Z,101531.66
2022-10-30T07:29:33.501Z,101536.88
2022-10-30T07:32:21.885Z,101541.28
2022-10-30T07:34:52.151Z,101492.44
2022-10-30T07:37:31.515Z,101549.47
2022-10-30T07:40:12.422Z,101443.13
2022-10-30T07:43:05.595Z,101548.22
2022-10-30T07:45:46.441Z,101546.56
2022-10-30T07:48:35.473Z,101545.16
2022-10-30T07:51:25.363Z,101578.97
2022-10-30T07:53:57.545Z,101552.03
2022-10-30T07:56:29.748Z,101308.75
2022-10-30T07:58:58.839Z,101550.16
2022-10-30T08:01:30.656Z,101553.66
2022-10-30T08:04:11.310Z,101542.69
2022-10-30T08:06:40.574Z,101547.72
2022-10-30T08:09:10.320Z,101237.34
2022-10-30T08:11:39.324Z,101479.88
2022-10-30T08:14:13.101Z,101211.66
2022-10-30T08:16:42.201Z,101366.22
2022-10-30T08:19:13.178Z,101552.66
2022-10-30T08:21:43.133Z,101472.97
2022-10-30T08:24:19.537Z,101551.88
2022-10-30T08:26:52.804Z,101553.66
2022-10-30T08:29:23.746Z,101555.41
2022-10-30T08:31:53.655Z,101222.16
2022-10-30T08:34:44.226Z,101564.19
2022-10-30T08:37:18.100Z,101582.72
2022-10-30T08:39:47.413Z,101568.03
2022-10-30T08:42:40.113Z,101564.00
2022-10-30T08:45:12.633Z,101522.09
2022-10-30T08:48:00.514Z,101560.56
2022-10-30T08:50:33.221Z,101530.56
2022-10-30T08:53:07.511Z,101559.28
2022-10-30T08:55:37.005Z,101531.25
2022-10-30T08:58:09.512Z,101318.69
2022-10-30T09:00:39.265Z,101420.97
2022-10-30T09:03:14.349Z,101494.81
2022-10-30T09:06:03.908Z,101556.59
2022-10-30T09:08:32.665Z,101489.56
2022-10-30T09:11:01.611Z,101558.31
2022-10-30T09:13:31.057Z,101546.69
2022-10-30T09:16:03.991Z,101557.88
2022-10-30T09:18:35.417Z,101261.16
2022-10-30T09:21:05.961Z,101474.03
2022-10-30T09:23:44.893Z,101466.63
2022-10-30T09:26:32.450Z,101559.06
2022-10-30T09:29:11.630Z,101560.63
2022-10-30T09:32:01.194Z,101562.59
2022-10-30T09:34:32.879Z,101516.75
2022-10-30T09:37:41.625Z,101555.34
2022-10-30T09:40:23.371Z,101562.38
2022-10-30T09:42:53.358Z,101556.41
2022-10-30T09:45:58.498Z,101565.81
2022-10-30T09:48:47.767Z,101563.41
2022-10-30T09:51:36.779Z,101557.50
2022-10-30T09:54:17.142Z,101554.94
2022-10-30T09:56:59.538Z,101554.59
2022-10-30T09:59:42.967Z,101553.84
2022-10-30T10:02:28.712Z,101524.63
2022-10-30T10:05:02.260Z,101523.97
2022-10-30T10:07:51.406Z,101549.59
2022-10-30T10:10:43.514Z,101554.31
2022-10-30T10:13:30.540Z,101553.97
2022-10-30T10:16:06.207Z,101529.50
2022-10-30T10:18:47.818Z,101560.34
2022-10-30T10:21:25.964Z,101584.63
2022-10-30T10:23:57.008Z,101542.34
2022-10-30T10:26:37.422Z,101538.97
2022-10-30T10:29:33.604Z,101541.28
2022-10-30T10:32:34.525Z,101543.50
2022-10-30T10:35:21.997Z,101560.06
2022-10-30T10:37:59.268Z,101535.06
2022-10-30T10:40:43.730Z,101546.72
2022-10-30T10:43:25.436Z,101541.81
2022-10-30T10:46:06.829Z,101541.72
2022-10-30T10:48:52.229Z,101538.94
2022-10-30T10:51:23.936Z,101532.38
2022-10-30T10:53:57.092Z,101528.78
2022-10-30T10:56:30.514Z,101528.78
2022-10-30T10:59:05.426Z,101527.50
2022-10-30T11:01:39.692Z,101524.50
2022-10-30T11:04:15.811Z,101512.91
2022-10-30T11:06:50.407Z,101515.00
2022-10-30T11:09:23.584Z,101516.94
2022-10-30T11:11:54.371Z,101500.63
2022-10-30T11:14:26.337Z,101502.72
2022-10-30T11:17:14.147Z,101504.50
2022-10-30T11:19:47.800Z,101504.50
2022-10-30T11:22:27.364Z,101509.94
2022-10-30T11:24:56.120Z,101501.06
2022-10-30T11:27:28.696Z,101502.00
2022-10-30T11:30:02.477Z,101489.88
2022-10-30T11:32:33.148Z,101492.63
2022-10-30T11:35:04.620Z,101489.25
2022-10-30T11:37:35.775Z,101485.91
2022-10-30T11:40:17.617Z,101492.84
2022-10-30T11:42:55.959Z,101492.03
2022-10-30T11:45:29.703Z,101473.38
2022-10-30T11:48:02.730Z,101490.22
2022-10-30T11:50:34.209Z,101479.66
2022-10-30T11:53:12.188Z,101478.94
2022-10-30T11:55:46.386Z,101480.72
2022-10-30T11:58:27.315Z,101452.38
2022-10-30T12:01:03.811Z,101471.91
2022-10-30T12:03:39.712Z,101484.31
2022-10-30T12:06:11.608Z,101481.06
2022-10-30T12:08:40.892Z,101474.13
2022-10-30T12:11:10.100Z,101475.31
2022-10-30T12:13:41.402Z,101477.72
2022-10-30T12:16:17.620Z,101477.00
2022-10-30T12:18:58.295Z,101485.63
2022-10-30T12:21:29.381Z,101476.25
2022-10-30T12:24:06.966Z,101474.34
2022-10-30T12:26:38.560Z,101475.59
2022-10-30T12:29:14.828Z,101360.59
2022-10-30T12:31:51.287Z,101479.00
2022-10-30T12:34:35.323Z,101479.41
2022-10-30T12:37:14.784Z,101481.06
2022-10-30T12:39:54.677Z,101475.34
2022-10-30T12:42:27.193Z,101483.38
2022-10-30T12:45:10.285Z,101476.72
2022-10-30T12:47:49.715Z,101476.44
2022-10-30T12:50:23.903Z,101470.06
2022-10-30T12:53:00.936Z,101470.31
2022-10-30T12:55:35.676Z,101453.38
2022-10-30T12:58:14.744Z,101460.19
2022-10-30T13:00:56.162Z,101464.75
2022-10-30T13:03:32.956Z,101456.88
2022-10-30T13:06:06.916Z,101464.00
2022-10-30T13:08:39.836Z,101468.19
2022-10-30T13:11:18.123Z,101471.59
2022-10-30T13:13:50.235Z,101461.91
2022-10-30T13:16:24.162Z,101456.84
2022-10-30T13:18:58.760Z,101454.22
2022-10-30T13:21:33.945Z,101453.97
2022-10-30T13:24:06.551Z,101455.63
2022-10-30T13:26:43.967Z,101462.56
2022-10-30T13:29:21.259Z,101451.59
2022-10-30T13:32:00.505Z,101464.34
2022-10-30T13:34:45.012Z,101461.44
2022-10-30T13:37:22.899Z,101457.66
2022-10-30T13:40:03.273Z,101456.31
2022-10-30T13:42:44.954Z,101451.84
2022-10-30T13:45:43.986Z,101449.19
2022-10-30T13:48:25.650Z,101427.25
2022-10-30T13:51:24.598Z,101444.13
2022-10-30T13:54:07.130Z,101435.84
2022-10-30T13:56:37.371Z,101427.53
2022-10-30T13:59:18.061Z,101431.03
2022-10-30T14:01:57.506Z,101435.09
2022-10-30T14:04:38.582Z,101445.91
2022-10-30T14:07:27.673Z,101449.34
2022-10-30T14:10:03.945Z,101463.38
2022-10-30T14:12:52.747Z,101388.34
2022-10-30T14:15:33.470Z,101482.81
2022-10-30T14:18:42.002Z,101479.84
2022-10-30T14:21:39.886Z,101488.78
2022-10-30T14:24:19.498Z,101487.66
2022-10-30T14:26:54.616Z,101507.00
2022-10-30T14:29:43.696Z,101517.88
2022-10-30T14:32:42.598Z,101520.88
2022-10-30T14:35:33.224Z,101514.50
2022-10-30T14:38:28.205Z,101496.13
2022-10-30T14:41:39.326Z,101514.28
2022-10-30T14:44:46.882Z,101446.19
2022-10-30T14:47:44.524Z,101501.13
2022-10-30T14:50:21.314Z,101488.59
2022-10-30T14:53:03.232Z,101429.94
2022-10-30T14:55:36.128Z,101489.16
2022-10-30T14:58:22.094Z,101474.72
2022-10-30T15:00:51.453Z,101502.53
2022-10-30T15:03:48.947Z,101509.41
2022-10-30T15:06:25.686Z,101531.34
2022-10-30T15:09:09.402Z,101523.06
2022-10-30T15:12:07.040Z,101544.66
2022-10-30T15:14:53.829Z,101548.13
2022-10-30T15:17:30.507Z,101562.91
2022-10-30T15:20:02.796Z,101549.19
2022-10-30T15:22:34.148Z,101568.50
2022-10-30T15:25:03.822Z,101566.78
2022-10-30T15:27:36.468Z,101575.56
2022-10-30T15:30:08.200Z,101545.81
2022-10-30T15:32:41.994Z,101585.66
2022-10-30T15:35:17.300Z,101559.31
2022-10-30T15:38:03.417Z,101591.97
2022-10-30T15:40:36.368Z,101600.41
2022-10-30T15:43:08.903Z,101600.19
2022-10-30T15:45:42.802Z,101600.47
2022-10-30T15:48:25.761Z,101614.41
2022-10-30T15:51:02.240Z,101618.63
2022-10-30T15:53:37.786Z,101597.94
2022-10-30T15:56:13.602Z,101620.47
2022-10-30T15:58:51.621Z,101618.13
2022-10-30T16:01:32.555Z,101622.94
2022-10-30T16:04:03.942Z,101630.97
2022-10-30T16:06:33.411Z,101635.00
2022-10-30T16:09:05.168Z,101629.03
2022-10-30T16:11:34.732Z,101635.53
2022-10-30T16:14:08.999Z,101625.78
2022-10-30T16:16:39.606Z,101631.13
2022-10-30T16:19:08.340Z,101617.69
2022-10-30T16:21:39.841Z,101594.75
2022-10-30T16:24:11.343Z,101620.66
2022-10-30T16:26:40.754Z,101616.25
2022-10-30T16:29:27.346Z,101617.78
2022-10-30T16:31:57.794Z,101611.31
2022-10-30T16:34:32.057Z,101606.41
2022-10-30T16:37:02.764Z,101485.97
2022-10-30T16:39:33.235Z,101613.63
2022-10-30T16:42:05.131Z,101614.69
2022-10-30T16:44:35.528Z,101626.03
2022-10-30T16:47:11.596Z,101628.94
2022-10-30T16:49:48.560Z,101622.28
2022-10-30T16:52:24.656Z,101621.53
2022-10-30T16:55:02.676Z,101615.25
2022-10-30T16:57:34.439Z,101625.19
2022-10-30T17:00:06.272Z,101622.59
2022-10-30T17:02:46.042Z,101631.44
2022-10-30T17:05:22.573Z,101627.00
2022-10-30T17:07:56.343Z,101628.50
2022-10-30T17:10:34.127Z,101629.53
2022-10-30T17:13:35.204Z,101628.75
2022-10-30T17:16:24.980Z,101627.31
2022-10-30T17:18:57.663Z,101629.69
2022-10-30T17:21:30.351Z,101613.13
2022-10-30T17:24:02.375Z,101522.47
2022-10-30T17:26:38.867Z,101630.09
2022-10-30T17:29:07.516Z,101623.66
2022-10-30T17:31:44.213Z,101642.81
2022-10-30T17:34:17.625Z,101659.59
2022-10-30T17:36:46.550Z,101665.38
2022-10-30T17:39:15.475Z,101672.81
2022-10-30T17:41:44.276Z,101676.63
2022-10-30T17:44:19.952Z,101685.50
2022-10-30T17:46:52.736Z,101699.91
2022-10-30T17:49:28.051Z,101656.91
2022-10-30T17:51:57.204Z,101670.97
2022-10-30T17:54:26.171Z,101679.69
2022-10-30T17:56:59.356Z,101708.50
2022-10-30T17:59:29.785Z,101717.75
2022-10-30T18:01:58.561Z,101720.44
2022-10-30T18:04:29.089Z,101727.91
2022-10-30T18:06:57.843Z,101725.91
2022-10-30T18:09:26.822Z,101734.53
2022-10-30T18:11:55.611Z,101737.16
2022-10-30T18:14:24.518Z,101732.03
2022-10-30T18:16:55.536Z,101735.75
2022-10-30T18:19:27.744Z,101743.78
2022-10-30T18:21:58.091Z,101761.56
2022-10-30T18:24:26.939Z,101767.16
2022-10-30T18:26:58.717Z,101756.97
2022-10-30T18:29:29.524Z,101745.63
2022-10-30T18:32:05.425Z,101729.19
2022-10-30T18:34:40.094Z,101750.56
2022-10-30T18:37:11.204Z,101757.09
2022-10-30T18:39:39.894Z,101771.53
2022-10-30T18:42:10.177Z,101771.63
2022-10-30T18:44:38.863Z,101773.28
2022-10-30T18:47:11.758Z,101770.56
2022-10-30T18:49:40.571Z,101763.88
2022-10-30T18:52:11.759Z,101756.25
2022-10-30T18:54:40.719Z,101765.06
2022-10-30T18:57:09.389Z,101758.63
2022-10-30T18:59:38.244Z,101730.97
2022-10-30T19:02:21.715Z,101743.97
2022-10-30T19:04:55.018Z,101767.16
2022-10-30T19:07:25.819Z,101767.25
2022-10-30T19:09:55.878Z,101749.63
2022-10-30T19:12:24.670Z,101772.91
2022-10-30T19:14:53.611Z,101775.34
2022-10-30T19:17:22.727Z,101772.03
2022-10-30T19:19:51.415Z,101776.22
2022-10-30T19:22:22.628Z,101784.47
2022-10-30T19:24:55.078Z,101794.03
2022-10-30T19:27:27.102Z,101785.16
2022-10-30T19:29:55.788Z,101797.88
2022-10-30T19:32:28.093Z,101802.66
2022-10-30T19:34:57.057Z,101796.28
2022-10-30T19:37:25.958Z,101814.38
2022-10-30T19:39:56.704Z,101814.47
2022-10-30T19:42:25.582Z,101820.25
2022-10-30T19:44:58.939Z,101815.78
2022-10-30T19:47:28.050Z,101804.38
2022-10-30T19:49:56.736Z,101818.00
2022-10-30T19:52:29.247Z,101814.00
2022-10-30T19:54:59.567Z,101821.28
2022-10-30T19:57:30.561Z,101818.19
2022-10-30T19:59:59.589Z,101813.25
2022-10-30T20:02:30.796Z,101822.16
2022-10-30T20:05:03.321Z,101819.84
2022-10-30T20:07:32.175Z,101812.50
2022-10-30T20:10:02.293Z,101814.28
2022-10-30T20:12:31.332Z,101816.63
2022-10-30T20:15:00.131Z,101815.94
2022-10-30T20:17:30.478Z,101823.47
2022-10-30T20:20:01.493Z,101823.16
2022-10-30T20:22:30.614Z,101821.88
2022-10-30T20:25:00.399Z,101826.19
2022-10-30T20:27:30.927Z,101831.66
2022-10-30T20:30:02.297Z,101827.06
2022-10-30T20:32:33.648Z,101810.44
2022-10-30T20:35:06.297Z,101829.81
2022-10-30T20:37:39.144Z,101824.72
2022-10-30T20:40:14.022Z,101818.28
2022-10-30T20:42:50.088Z,101834.13
2022-10-30T20:45:24.510Z,101799.59
2022-10-30T20:47:56.354Z,101839.63
2022-10-30T20:50:28.342Z,101828.75
2022-10-30T20:52:57.761Z,101834.72
2022-10-30T20:55:26.510Z,101836.47
2022-10-30T20:57:58.139Z,101838.97
2022-10-30T21:00:27.046Z,101835.78
2022-10-30T21:02:59.182Z,101835.53
2022-10-30T21:05:43.152Z,101841.28
2022-10-30T21:08:12.864Z,101841.44
2022-10-30T21:10:42.037Z,101755.69
2022-10-30T21:13:14.308Z,101809.22
2022-10-30T21:15:44.563Z,101851.63
2022-10-30T21:18:16.614Z,101842.06
2022-10-30T21:20:47.436Z,101855.38
2022-10-30T21:23:16.520Z,101858.47
2022-10-30T21:25:50.210Z,101853.72
2022-10-30T21:28:20.339Z,101860.81
2022-10-30T21:30:49.903Z,101861.13
2022-10-30T21:33:19.691Z,101778.25
2022-10-30T21:35:48.486Z,101854.72
2022-10-30T21:38:17.111Z,101841.97
2022-10-30T21:40:56.027Z,101855.09
2022-10-30T21:43:26.224Z,101855.50
2022-10-30T21:45:55.106Z,101857.66
2022-10-30T21:48:27.224Z,101863.47
2022-10-30T21:50:55.988Z,101853.38
2022-10-30T21:53:24.670Z,101860.63
2022-10-30T21:55:53.916Z,101863.94
2022-10-30T21:58:22.656Z,101873.31
2022-10-30T22:00:55.795Z,101876.75
2022-10-30T22:03:24.507Z,101878.09
2022-10-30T22:05:53.736Z,101870.91
2022-10-30T22:08:22.805Z,101868.84
2022-10-30T22:10:51.902Z,101868.28
2022-10-30T22:13:23.094Z,101874.53
2022-10-30T22:15:56.791Z,101873.47
2022-10-30T22:18:26.172Z,101881.78
2022-10-30T22:21:01.589Z,101873.25
2022-10-30T22:23:31.612Z,101882.38
2022-10-30T22:26:02.315Z,101865.59
2022-10-30T22:28:34.983Z,101883.91
2022-10-30T22:31:07.046Z,101884.09
2022-10-30T22:33:36.390Z,101886.75
2022-10-30T22:36:07.256Z,101863.50
2022-10-30T22:38:36.553Z,101853.03
2022-10-30T22:41:09.598Z,101885.59
2022-10-30T22:43:38.424Z,101885.13
2022-10-30T22:46:10.181Z,101895.94
2022-10-30T22:48:39.244Z,101892.41
2022-10-30T22:51:15.385Z,101889.38
2022-10-30T22:53:50.724Z,101887.91
2022-10-30T22:56:24.193Z,101889.03
2022-10-30T22:58:56.103Z,101887.91
2022-10-30T23:01:28.166Z,101874.03
2022-10-30T23:03:58.661Z,101886.84
2022-10-30T23:06:28.459Z,101889.31
2022-10-30T23:08:58.948Z,101892.09
2022-10-30T23:11:30.728Z,101869.47
2022-10-30T23:13:59.368Z,101892.84
2022-10-30T23:16:33.025Z,101902.91
2022-10-30T23:19:02.139Z,101904.69
2022-10-30T23:21:32.482Z,101904.31
2022-10-30T23:24:33.887Z,101908.31
2022-10-30T23:27:02.609Z,101906.69
2022-10-30T23:29:33.461Z,101910.88
2022-10-30T23:32:03.572Z,101909.78
2022-10-30T23:34:32.228Z,101905.00
2022-10-30T23:37:01.932Z,101911.13
2022-10-30T23:39:35.270Z,101909.94
2022-10-30T23:42:08.460Z,101913.97
2022-10-30T23:44:47.812Z,101898.19
2022-10-30T23:47:18.122Z,101902.03
2022-10-30T23:49:49.317Z,101915.50
2022-10-30T23:52:26.815Z,101847.66
2022-10-30T23:54:55.740Z,101909.47
2022-10-30T23:57:24.839Z,101906.69
2022-10-30T23:59:53.479Z,101908.47
